Time;durP1;ratioP1;P1;durP2;ratioP2;P2;SDS_P1;SDS_P2;PMS_P1;PMS_P2;Temp;Humidity;BMP_temperature;BMP_pressure;BME280_temperature;BME280_humidity;BME280_pressure;Samples;Min_cycle;Max_cycle;Signal;HPM_P1;HPM_P2
2023/08/27 00:00:08;;;;;;;3.00;2.70;;;13.70;99.90;;;;;;5078645;28;20387;-69
2023/08/27 00:02:34;;;;;;;5.53;4.60;;;13.70;99.90;;;;;;5095349;28;20039;-69
2023/08/27 00:04:59;;;;;;;5.28;3.35;;;13.70;99.90;;;;;;5098407;28;20040;-69
2023/08/27 00:07:25;;;;;;;3.47;2.85;;;13.70;99.90;;;;;;5099385;28;20048;-69
2023/08/27 00:09:50;;;;;;;5.85;3.33;;;13.70;99.90;;;;;;5115001;28;20478;-69
2023/08/27 00:12:16;;;;;;;4.43;4.03;;;13.70;99.90;;;;;;5076823;28;20068;-69
2023/08/27 00:14:42;;;;;;;4.53;4.15;;;13.70;99.90;;;;;;5111823;28;20384;-69
2023/08/27 00:17:08;;;;;;;6.13;3.88;;;13.70;99.90;;;;;;5099468;28;20090;-69
2023/08/27 00:19:34;;;;;;;6.07;4.15;;;13.70;99.90;;;;;;5114625;27;20123;-69
2023/08/27 00:21:59;;;;;;;4.05;3.65;;;13.70;99.90;;;;;;5077389;28;20138;-69
2023/08/27 00:24:25;;;;;;;4.95;4.50;;;13.60;99.90;;;;;;5110805;28;20043;-69
2023/08/27 00:26:51;;;;;;;5.28;4.80;;;13.70;99.90;;;;;;5077984;28;20036;-69
2023/08/27 00:29:19;;;;;;;5.28;3.80;;;13.70;99.90;;;;;;5078237;28;20549;-69
2023/08/27 00:31:45;;;;;;;4.63;4.28;;;13.60;99.90;;;;;;5074394;28;20119;-70
2023/08/27 00:34:11;;;;;;;4.60;4.25;;;13.80;99.90;;;;;;5098675;28;20607;-69
2023/08/27 00:36:37;;;;;;;5.57;4.90;;;13.70;99.90;;;;;;5103082;28;20103;-69
2023/08/27 00:39:04;;;;;;;5.38;4.85;;;13.70;99.90;;;;;;5098481;28;20059;-69
2023/08/27 00:41:29;;;;;;;5.10;3.92;;;13.70;99.90;;;;;;5095873;28;20058;-69
2023/08/27 00:43:55;;;;;;;4.13;3.70;;;13.70;99.90;;;;;;5080718;28;20040;-69
2023/08/27 00:46:20;;;;;;;5.03;4.03;;;13.70;99.90;;;;;;5077097;28;20635;-69
2023/08/27 00:48:46;;;;;;;4.50;4.18;;;13.70;99.90;;;;;;5095638;28;20048;-69
2023/08/27 00:51:12;;;;;;;5.32;4.00;;;13.70;99.90;;;;;;5078036;28;20040;-69
2023/08/27 00:53:38;;;;;;;5.60;3.60;;;13.60;99.90;;;;;;5082705;28;20084;-69
2023/08/27 00:56:04;;;;;;;4.00;3.33;;;13.60;99.90;;;;;;5076786;28;20052;-69
2023/08/27 00:58:30;;;;;;;4.72;2.83;;;13.60;99.90;;;;;;5100714;28;20036;-69
2023/08/27 01:00:56;;;;;;;3.67;2.40;;;13.50;99.90;;;;;;5084573;28;20028;-69
2023/08/27 01:03:22;;;;;;;2.95;2.67;;;13.50;99.90;;;;;;5102173;28;20048;-69
2023/08/27 01:05:48;;;;;;;2.85;2.65;;;13.50;99.90;;;;;;5097858;28;20486;-69
2023/08/27 01:08:19;;;;;;;3.50;2.95;;;13.50;99.90;;;;;;5100462;28;20031;-69
2023/08/27 01:11:00;;;;;;;5.47;3.47;;;13.50;99.90;;;;;;5095202;28;20043;-69
2023/08/27 01:13:52;;;;;;;7.53;3.90;;;13.50;99.90;;;;;;5100975;28;20093;-69
2023/08/27 01:16:19;;;;;;;4.43;3.10;;;13.50;99.90;;;;;;5065411;28;20050;-68
2023/08/27 01:18:45;;;;;;;5.15;4.55;;;13.50;99.90;;;;;;5098960;28;20092;-69
2023/08/27 01:21:24;;;;;;;4.03;3.70;;;13.50;99.90;;;;;;5104731;28;20588;-69
2023/08/27 01:23:50;;;;;;;4.50;4.07;;;13.50;99.90;;;;;;5097065;28;20035;-69
2023/08/27 01:26:47;;;;;;;4.60;4.07;;;13.50;99.90;;;;;;5105892;28;20390;-70
2023/08/27 01:29:19;;;;;;;5.25;4.75;;;13.50;99.90;;;;;;5079418;28;20039;-69
2023/08/27 01:31:53;;;;;;;5.00;4.60;;;13.60;99.90;;;;;;5098409;28;20043;-70
2023/08/27 01:34:22;;;;;;;4.77;4.33;;;13.60;99.90;;;;;;5114145;27;20039;-70
2023/08/27 01:36:48;;;;;;;7.18;4.50;;;13.60;99.90;;;;;;5067582;28;20071;-69
2023/08/27 01:39:14;;;;;;;6.20;4.80;;;13.60;99.90;;;;;;5098393;28;20068;-69
2023/08/27 01:41:40;;;;;;;4.82;4.43;;;13.60;99.90;;;;;;5082381;28;20045;-70
2023/08/27 01:44:06;;;;;;;5.07;4.68;;;13.60;99.90;;;;;;5103824;28;20469;-70
2023/08/27 01:46:31;;;;;;;5.60;5.00;;;13.70;99.90;;;;;;5081151;28;20112;-70
2023/08/27 01:48:57;;;;;;;6.88;5.20;;;13.60;99.90;;;;;;5117856;27;20032;-70
2023/08/27 01:51:23;;;;;;;4.70;4.35;;;13.60;99.90;;;;;;5098291;28;20044;-69
2023/08/27 01:53:48;;;;;;;5.15;4.00;;;13.70;99.90;;;;;;5084257;28;20035;-69
2023/08/27 01:56:14;;;;;;;5.70;4.30;;;13.60;99.90;;;;;;5099805;28;20044;-69
2023/08/27 01:58:40;;;;;;;4.65;4.28;;;13.50;99.90;;;;;;5095677;28;20053;-70
2023/08/27 02:01:06;;;;;;;7.18;4.53;;;13.50;99.90;;;;;;5096468;28;20032;-70
2023/08/27 02:03:32;;;;;;;5.20;4.18;;;13.40;99.90;;;;;;5065180;28;20548;-69
2023/08/27 02:05:57;;;;;;;4.30;3.90;;;13.40;99.90;;;;;;5082648;28;20071;-70
2023/08/27 02:08:23;;;;;;;7.57;4.03;;;13.40;99.90;;;;;;5100434;28;20494;-70
2023/08/27 02:10:49;;;;;;;5.10;4.60;;;13.40;99.90;;;;;;5096669;28;20036;-70
2023/08/27 02:13:15;;;;;;;4.45;4.15;;;13.40;99.90;;;;;;5094933;28;20510;-69
2023/08/27 02:15:42;;;;;;;4.50;4.10;;;13.30;99.90;;;;;;5100167;28;20484;-69
2023/08/27 02:18:08;;;;;;;5.88;3.75;;;13.30;99.90;;;;;;5098619;28;20055;-69
2023/08/27 02:20:34;;;;;;;4.70;4.30;;;13.30;99.90;;;;;;5093227;28;20028;-69
2023/08/27 02:23:00;;;;;;;3.78;3.47;;;13.30;99.90;;;;;;5094236;28;20131;-70
2023/08/27 02:25:25;;;;;;;4.18;3.78;;;13.40;99.90;;;;;;5097800;28;20028;-69
2023/08/27 02:27:51;;;;;;;4.13;3.70;;;13.30;99.90;;;;;;5099501;28;20035;-70
2023/08/27 02:30:16;;;;;;;3.58;3.28;;;13.20;99.90;;;;;;5080648;28;20032;-69
2023/08/27 02:32:42;;;;;;;4.03;3.65;;;13.20;99.90;;;;;;5099697;28;20256;-69
2023/08/27 02:35:08;;;;;;;3.85;3.55;;;13.20;99.90;;;;;;5077746;28;20044;-69
2023/08/27 02:37:33;;;;;;;7.13;3.47;;;13.20;99.90;;;;;;5103006;28;20118;-69
2023/08/27 02:39:59;;;;;;;7.65;4.35;;;13.10;99.90;;;;;;5076732;28;20039;-69
2023/08/27 02:42:24;;;;;;;4.53;4.18;;;13.10;99.90;;;;;;5099205;28;20474;-69
2023/08/27 02:44:50;;;;;;;6.45;4.25;;;13.30;99.90;;;;;;5096184;28;20076;-70
2023/08/27 02:47:16;;;;;;;5.03;4.53;;;13.10;99.90;;;;;;5101038;28;20044;-70
2023/08/27 02:49:42;;;;;;;5.57;5.07;;;13.20;99.90;;;;;;5082289;28;20032;-69
2023/08/27 02:52:07;;;;;;;7.28;4.68;;;13.20;99.90;;;;;;5099788;28;20058;-69
2023/08/27 02:54:33;;;;;;;4.65;4.25;;;13.20;99.90;;;;;;5099116;28;20100;-69
2023/08/27 02:56:59;;;;;;;7.07;4.95;;;13.20;99.90;;;;;;5098339;28;20127;-69
2023/08/27 02:59:24;;;;;;;4.88;4.25;;;13.50;99.90;;;;;;5097371;28;20062;-69
2023/08/27 03:01:53;;;;;;;6.72;5.05;;;13.20;99.90;;;;;;5097712;28;20620;-69
2023/08/27 03:04:18;;;;;;;5.38;4.97;;;13.30;99.90;;;;;;5094606;28;20047;-69
2023/08/27 03:06:44;;;;;;;5.72;5.28;;;13.20;99.90;;;;;;5098087;28;20442;-69
2023/08/27 03:09:10;;;;;;;5.55;5.10;;;13.30;99.90;;;;;;5097896;28;20039;-69
2023/08/27 03:11:36;;;;;;;5.70;5.20;;;13.30;99.90;;;;;;5095853;28;20414;-69
2023/08/27 03:14:02;;;;;;;5.53;5.13;;;13.40;99.90;;;;;;5100941;28;20039;-69
2023/08/27 03:16:28;;;;;;;6.40;5.78;;;13.40;99.90;;;;;;5093806;28;20434;-70
2023/08/27 03:18:54;;;;;;;5.10;4.68;;;13.40;99.90;;;;;;5062564;28;20047;-70
2023/08/27 03:21:21;;;;;;;7.50;5.68;;;13.50;99.90;;;;;;5096375;28;20452;-70
2023/08/27 03:23:47;;;;;;;9.35;5.10;;;13.50;99.90;;;;;;5074871;28;20169;-70
2023/08/27 03:26:12;;;;;;;5.95;5.35;;;13.50;99.90;;;;;;5075341;28;20094;-69
2023/08/27 03:28:38;;;;;;;6.53;5.50;;;13.50;99.90;;;;;;5081839;28;20036;-70
2023/08/27 03:31:04;;;;;;;10.45;6.05;;;13.60;99.90;;;;;;5081009;28;20040;-70
2023/08/27 03:33:31;;;;;;;6.15;5.57;;;13.60;99.90;;;;;;5075181;28;20478;-70
2023/08/27 03:35:58;;;;;;;6.63;6.03;;;13.60;99.90;;;;;;5100313;28;20050;-70
2023/08/27 03:38:24;;;;;;;5.95;5.35;;;13.70;99.90;;;;;;5095469;28;20516;-70
2023/08/27 03:40:52;;;;;;;6.25;5.57;;;13.70;99.90;;;;;;5091910;28;20119;-70
2023/08/27 03:43:17;;;;;;;7.45;5.78;;;13.70;99.90;;;;;;5076792;28;20037;-70
2023/08/27 03:45:43;;;;;;;5.18;4.68;;;13.80;99.90;;;;;;5099380;28;20038;-70
2023/08/27 03:48:09;;;;;;;6.88;4.95;;;13.90;99.90;;;;;;5077876;28;20059;-70
2023/08/27 03:50:38;;;;;;;6.85;5.25;;;13.80;99.90;;;;;;5112936;28;20030;-70
2023/08/27 03:53:05;;;;;;;5.05;4.65;;;13.80;99.90;;;;;;5098881;28;20043;-70
2023/08/27 03:55:36;;;;;;;7.45;4.60;;;13.80;99.90;;;;;;5095092;28;20169;-70
2023/08/27 03:58:02;;;;;;;5.90;4.90;;;13.80;99.90;;;;;;5099462;28;20520;-70
2023/08/27 04:00:27;;;;;;;5.07;4.35;;;13.80;99.90;;;;;;5095111;28;20039;-70
2023/08/27 04:02:53;;;;;;;4.97;4.50;;;13.80;99.90;;;;;;5115212;28;20048;-70
2023/08/27 04:05:19;;;;;;;4.43;4.10;;;13.90;99.90;;;;;;5099901;28;20036;-70
2023/08/27 04:07:45;;;;;;;6.45;4.28;;;13.90;99.90;;;;;;5080758;28;20502;-70
2023/08/27 04:10:10;;;;;;;4.50;3.83;;;13.90;99.90;;;;;;5112969;28;20085;-70
2023/08/27 04:12:36;;;;;;;4.20;3.80;;;13.90;99.90;;;;;;5096892;28;20036;-69
2023/08/27 04:15:01;;;;;;;3.90;3.60;;;13.80;99.90;;;;;;5097701;28;20035;-70
2023/08/27 04:17:28;;;;;;;4.78;3.38;;;13.80;99.90;;;;;;5100076;28;20043;-70
2023/08/27 04:19:55;;;;;;;3.80;3.50;;;13.80;99.90;;;;;;5064084;28;20052;-70
2023/08/27 04:22:21;;;;;;;4.50;3.65;;;13.80;99.90;;;;;;5079531;28;20048;-70
2023/08/27 04:24:47;;;;;;;4.85;3.72;;;13.80;99.90;;;;;;5101221;28;20039;-70
2023/08/27 04:27:12;;;;;;;3.33;3.03;;;13.70;99.90;;;;;;5103853;28;20040;-70
2023/08/27 04:29:38;;;;;;;3.72;3.33;;;13.70;99.90;;;;;;5079863;28;20143;-70
2023/08/27 04:32:04;;;;;;;6.75;3.60;;;13.70;99.90;;;;;;5101015;28;20039;-70
2023/08/27 04:34:29;;;;;;;4.18;3.78;;;13.70;99.90;;;;;;5102849;28;20374;-70
2023/08/27 04:37:00;;;;;;;3.88;3.28;;;13.60;99.90;;;;;;5081116;28;20505;-69
2023/08/27 04:39:26;;;;;;;4.22;3.92;;;13.70;99.90;;;;;;5082216;28;20062;-70
2023/08/27 04:41:53;;;;;;;4.47;3.92;;;13.60;99.90;;;;;;5120800;27;20032;-70
2023/08/27 04:44:18;;;;;;;7.70;3.17;;;13.60;99.90;;;;;;5081605;28;20039;-70
2023/08/27 04:46:44;;;;;;;3.78;3.47;;;13.60;99.90;;;;;;5097275;28;20047;-70
2023/08/27 04:49:09;;;;;;;4.03;3.72;;;13.60;99.90;;;;;;5098800;28;20033;-70
2023/08/27 04:51:35;;;;;;;7.20;4.00;;;13.60;99.90;;;;;;5101886;28;20069;-70
2023/08/27 04:54:04;;;;;;;4.80;4.07;;;13.60;99.90;;;;;;5101941;28;20043;-70
2023/08/27 04:56:29;;;;;;;5.95;3.88;;;13.60;99.90;;;;;;5068875;28;20103;-70
2023/08/27 04:58:55;;;;;;;4.40;4.00;;;13.60;99.90;;;;;;5118209;27;20113;-70
2023/08/27 05:01:21;;;;;;;4.93;4.43;;;13.60;99.90;;;;;;5084045;28;20039;-69
2023/08/27 05:03:46;;;;;;;4.30;3.90;;;13.60;99.90;;;;;;5105011;28;20159;-69
2023/08/27 05:06:12;;;;;;;5.10;4.45;;;13.50;99.90;;;;;;5099480;28;20048;-70
2023/08/27 05:08:37;;;;;;;4.90;4.03;;;13.60;99.90;;;;;;5085842;28;20393;-70
2023/08/27 05:11:03;;;;;;;4.20;3.90;;;13.50;99.90;;;;;;5101195;28;20089;-70
2023/08/27 05:13:29;;;;;;;4.97;4.57;;;13.60;99.90;;;;;;5100464;28;20032;-70
2023/08/27 05:15:54;;;;;;;4.63;4.07;;;13.60;99.90;;;;;;5115702;27;20040;-70
2023/08/27 05:18:20;;;;;;;4.72;4.30;;;13.70;99.90;;;;;;5100768;28;20039;-69
2023/08/27 05:20:46;;;;;;;4.55;3.88;;;13.70;99.90;;;;;;5111248;27;20484;-70
2023/08/27 05:23:12;;;;;;;3.80;3.50;;;13.70;99.90;;;;;;5086614;28;20036;-70
2023/08/27 05:25:38;;;;;;;6.25;3.90;;;13.80;99.90;;;;;;5096362;28;20036;-70
2023/08/27 05:28:04;;;;;;;4.40;4.10;;;13.80;99.90;;;;;;5080270;28;20438;-70
2023/08/27 05:30:30;;;;;;;4.47;3.60;;;13.90;99.90;;;;;;5098475;28;20522;-70
2023/08/27 05:32:55;;;;;;;6.68;3.75;;;13.90;99.90;;;;;;5078646;28;20079;-70
2023/08/27 05:35:22;;;;;;;3.88;3.58;;;14.00;99.90;;;;;;5080721;28;20067;-70
2023/08/27 05:37:48;;;;;;;4.60;3.83;;;14.10;99.90;;;;;;5104209;28;20047;-69
2023/08/27 05:40:13;;;;;;;5.55;4.00;;;14.10;99.90;;;;;;5123946;27;20039;-70
2023/08/27 05:42:39;;;;;;;4.13;3.75;;;14.20;99.90;;;;;;5082823;28;20039;-70
2023/08/27 05:45:05;;;;;;;3.80;3.50;;;14.20;99.90;;;;;;5097986;28;20107;-70
2023/08/27 05:47:31;;;;;;;4.43;3.65;;;14.40;99.90;;;;;;5098532;28;20178;-70
2023/08/27 05:49:56;;;;;;;4.57;4.18;;;14.70;99.90;;;;;;5117983;27;20787;-70
2023/08/27 05:52:22;;;;;;;3.05;2.85;;;15.10;99.90;;;;;;5062739;28;20578;-70
2023/08/27 05:54:48;;;;;;;4.28;3.53;;;15.20;99.90;;;;;;5080770;28;20031;-70
2023/08/27 05:57:13;;;;;;;4.97;3.75;;;15.20;99.90;;;;;;5114536;27;20119;-70
2023/08/27 05:59:39;;;;;;;3.78;3.47;;;15.10;99.90;;;;;;5080839;28;20040;-70
2023/08/27 06:02:05;;;;;;;4.28;3.65;;;15.10;99.90;;;;;;5098692;28;20404;-70
2023/08/27 06:04:31;;;;;;;4.63;4.28;;;15.10;99.90;;;;;;5095376;28;20123;-70
2023/08/27 06:06:56;;;;;;;4.75;4.35;;;14.90;99.90;;;;;;5103090;28;20110;-71
2023/08/27 06:09:22;;;;;;;4.50;4.07;;;14.90;99.90;;;;;;5095837;28;20036;-70
2023/08/27 06:11:47;;;;;;;4.25;3.80;;;14.80;99.90;;;;;;5123071;27;20040;-71
2023/08/27 06:14:13;;;;;;;9.60;4.75;;;14.70;99.90;;;;;;5082529;28;20544;-70
2023/08/27 06:16:39;;;;;;;5.68;3.95;;;14.60;99.90;;;;;;5096459;28;20089;-71
2023/08/27 06:19:05;;;;;;;7.32;4.00;;;14.70;99.90;;;;;;5095282;28;20043;-71
2023/08/27 06:21:30;;;;;;;4.97;3.92;;;14.70;99.90;;;;;;5097640;28;20080;-71
2023/08/27 06:23:56;;;;;;;4.53;3.70;;;14.60;99.90;;;;;;5118812;27;20048;-71
2023/08/27 06:26:21;;;;;;;6.00;3.83;;;14.60;99.90;;;;;;5101128;28;20047;-71
2023/08/27 06:28:47;;;;;;;4.75;4.00;;;14.60;99.90;;;;;;5098572;28;20104;-71
2023/08/27 06:31:13;;;;;;;6.40;3.78;;;14.60;99.90;;;;;;5096267;28;20123;-71
2023/08/27 06:33:38;;;;;;;4.50;3.95;;;14.50;99.90;;;;;;5078915;28;20043;-71
2023/08/27 06:36:05;;;;;;;4.65;3.63;;;14.50;99.90;;;;;;5097052;28;20035;-71
2023/08/27 06:38:31;;;;;;;6.60;3.55;;;14.50;99.90;;;;;;5075055;28;20466;-70
2023/08/27 06:40:57;;;;;;;4.95;3.47;;;14.50;99.90;;;;;;5100278;28;20031;-70
2023/08/27 06:43:23;;;;;;;4.25;3.10;;;14.40;99.90;;;;;;5083539;28;20482;-70
2023/08/27 06:45:48;;;;;;;4.13;3.03;;;14.40;99.90;;;;;;5092856;28;20031;-71
2023/08/27 06:48:14;;;;;;;4.30;2.80;;;14.50;99.90;;;;;;5095265;28;20039;-71
2023/08/27 06:50:40;;;;;;;5.22;2.85;;;14.40;99.90;;;;;;5077806;28;20085;-70
2023/08/27 06:53:06;;;;;;;6.93;2.97;;;14.40;99.90;;;;;;5100760;28;20371;-71
2023/08/27 06:55:31;;;;;;;4.10;2.97;;;14.40;99.90;;;;;;5098759;28;20065;-71
2023/08/27 06:57:58;;;;;;;3.83;3.28;;;14.40;99.90;;;;;;5098745;28;20059;-70
2023/08/27 07:00:25;;;;;;;4.25;2.60;;;14.40;99.90;;;;;;5100245;28;20036;-70
2023/08/27 07:02:51;;;;;;;3.28;2.45;;;14.70;99.90;;;;;;5080037;28;20044;-70
2023/08/27 07:05:17;;;;;;;4.13;2.80;;;14.50;99.90;;;;;;5077694;28;20039;-70
2023/08/27 07:07:42;;;;;;;7.15;2.45;;;14.50;99.90;;;;;;5103766;27;20040;-70
2023/08/27 07:10:09;;;;;;;4.95;2.55;;;14.60;99.90;;;;;;5095410;28;20054;-70
2023/08/27 07:12:35;;;;;;;3.17;2.42;;;14.60;99.90;;;;;;5109524;27;20044;-70
2023/08/27 07:15:05;;;;;;;4.28;2.47;;;14.60;99.90;;;;;;5077654;28;20037;-70
2023/08/27 07:17:33;;;;;;;3.05;2.13;;;14.70;99.90;;;;;;5079577;28;20075;-70
2023/08/27 07:19:59;;;;;;;4.97;2.67;;;14.70;99.90;;;;;;5064799;28;20070;-70
2023/08/27 07:22:25;;;;;;;2.10;1.63;;;14.80;99.90;;;;;;5090840;28;20114;-70
2023/08/27 07:24:51;;;;;;;4.00;2.08;;;14.70;99.90;;;;;;5076020;28;20844;-70
2023/08/27 07:27:16;;;;;;;2.63;1.80;;;14.70;99.90;;;;;;5057805;28;20043;-70
2023/08/27 07:29:42;;;;;;;3.00;2.17;;;14.70;99.90;;;;;;5076613;28;20247;-70
2023/08/27 07:32:08;;;;;;;3.75;2.33;;;14.70;99.90;;;;;;5095138;28;20036;-70
2023/08/27 07:34:34;;;;;;;5.00;2.75;;;14.70;99.90;;;;;;5076661;28;20034;-70
2023/08/27 07:36:59;;;;;;;2.67;2.35;;;14.80;99.90;;;;;;5099025;28;20074;-70
2023/08/27 07:39:25;;;;;;;3.50;2.40;;;14.80;99.90;;;;;;5094996;28;20461;-70
2023/08/27 07:41:51;;;;;;;2.67;2.30;;;14.90;99.90;;;;;;5069138;28;20138;-69
2023/08/27 07:44:17;;;;;;;3.38;2.40;;;15.10;99.90;;;;;;5091946;28;20040;-69
2023/08/27 07:46:42;;;;;;;3.03;2.72;;;15.30;99.90;;;;;;5112000;27;20056;-67
2023/08/27 07:49:09;;;;;;;2.85;2.28;;;15.50;99.90;;;;;;5076495;28;20082;-69
2023/08/27 07:51:35;;;;;;;4.07;2.40;;;15.60;99.90;;;;;;5078643;28;20040;-69
2023/08/27 07:54:01;;;;;;;2.05;1.85;;;15.80;99.90;;;;;;5094629;28;20028;-69
2023/08/27 07:56:26;;;;;;;2.65;2.03;;;16.10;99.90;;;;;;5092409;28;20051;-68
2023/08/27 07:58:52;;;;;;;3.53;1.45;;;16.40;99.90;;;;;;5096693;28;20073;-70
2023/08/27 08:01:18;;;;;;;2.95;1.70;;;16.60;99.90;;;;;;5110365;28;20039;-70
2023/08/27 08:03:44;;;;;;;4.18;1.88;;;16.90;99.90;;;;;;5095393;28;20039;-70
2023/08/27 08:06:10;;;;;;;2.83;1.55;;;17.10;99.90;;;;;;5090588;28;20547;-69
2023/08/27 08:08:36;;;;;;;2.67;1.60;;;17.30;99.90;;;;;;5079592;28;20040;-69
2023/08/27 08:11:02;;;;;;;3.45;1.70;;;17.50;99.90;;;;;;5095504;28;20032;-70
2023/08/27 08:13:28;;;;;;;2.63;1.75;;;17.70;99.90;;;;;;5074376;28;20458;-72
2023/08/27 08:15:54;;;;;;;2.45;1.88;;;17.80;99.90;;;;;;5094945;28;20032;-69
2023/08/27 08:18:19;;;;;;;2.10;1.90;;;17.90;99.90;;;;;;5076186;28;20438;-70
2023/08/27 08:20:45;;;;;;;2.53;1.80;;;18.10;99.90;;;;;;5108703;28;20043;-70
2023/08/27 08:23:11;;;;;;;1.50;1.40;;;18.30;99.90;;;;;;5094426;28;20038;-71
2023/08/27 08:25:37;;;;;;;3.55;1.70;;;18.30;99.90;;;;;;5073934;28;20058;-70
2023/08/27 08:28:04;;;;;;;10.75;2.50;;;18.50;99.90;;;;;;5077479;28;20094;-71
2023/08/27 08:30:29;;;;;;;2.88;1.40;;;18.60;99.90;;;;;;5072566;28;20123;-70
2023/08/27 08:32:55;;;;;;;7.90;2.22;;;18.80;99.90;;;;;;5112223;28;20158;-70
2023/08/27 08:35:21;;;;;;;1.90;1.02;;;19.00;99.90;;;;;;5091187;28;20047;-69
2023/08/27 08:37:46;;;;;;;2.15;1.30;;;19.10;99.90;;;;;;5110797;28;20046;-72
2023/08/27 08:40:12;;;;;;;6.80;1.30;;;19.30;99.90;;;;;;5096926;28;20617;-70
2023/08/27 08:42:51;;;;;;;2.80;1.35;;;19.40;99.90;;;;;;5097653;28;20068;-71
2023/08/27 08:45:27;;;;;;;1.30;1.10;;;19.50;99.90;;;;;;5095894;28;20410;-71
2023/08/27 08:47:54;;;;;;;2.45;1.60;;;19.50;99.90;;;;;;5076072;28;20048;-69
2023/08/27 08:50:21;;;;;;;1.20;1.10;;;19.70;99.90;;;;;;5095343;28;20410;-69
2023/08/27 08:52:49;;;;;;;1.77;0.90;;;19.90;99.90;;;;;;5078138;28;20040;-71
2023/08/27 08:55:18;;;;;;;3.60;1.42;;;20.00;99.90;;;;;;5071817;28;20040;-70
2023/08/27 08:57:52;;;;;;;2.38;1.50;;;20.10;99.90;;;;;;5090078;28;20437;-71
2023/08/27 09:00:19;;;;;;;3.40;1.17;;;20.30;99.90;;;;;;5093760;28;20043;-70
2023/08/27 09:02:46;;;;;;;4.22;1.20;;;20.30;99.90;;;;;;5099229;28;20470;-69
2023/08/27 09:05:16;;;;;;;1.58;1.17;;;20.50;99.90;;;;;;5072691;28;20044;-69
2023/08/27 09:07:43;;;;;;;3.05;1.02;;;20.50;99.90;;;;;;5080681;28;20040;-71
2023/08/27 09:10:11;;;;;;;1.88;1.35;;;20.90;99.90;;;;;;5073263;28;20211;-70
2023/08/27 09:12:40;;;;;;;1.50;0.82;;;21.00;99.90;;;;;;5085748;28;20035;-69
2023/08/27 09:15:10;;;;;;;3.28;1.30;;;21.00;99.90;;;;;;5098178;28;20736;-70
2023/08/27 09:17:36;;;;;;;4.68;1.30;;;21.10;99.90;;;;;;5081371;28;20059;-69
2023/08/27 09:20:03;;;;;;;1.80;1.02;;;21.20;99.90;;;;;;5099807;28;20039;-70
2023/08/27 09:22:28;;;;;;;3.63;1.08;;;21.40;99.90;;;;;;5079765;28;20047;-71
2023/08/27 09:24:54;;;;;;;1.33;1.05;;;21.30;99.90;;;;;;5093976;28;20035;-69
2023/08/27 09:27:20;;;;;;;1.20;0.88;;;21.40;99.90;;;;;;5114270;27;20035;-70
2023/08/27 09:29:47;;;;;;;4.85;1.00;;;21.10;99.90;;;;;;5099831;28;20119;-70
2023/08/27 09:32:21;;;;;;;2.58;0.98;;;21.20;99.90;;;;;;5097005;28;20048;-70
2023/08/27 09:34:47;;;;;;;3.22;1.17;;;21.20;99.90;;;;;;5084387;28;20043;-69
2023/08/27 09:37:13;;;;;;;1.20;0.80;;;21.40;99.90;;;;;;5080322;28;20039;-70
2023/08/27 09:39:45;;;;;;;1.77;0.90;;;21.50;99.90;;;;;;5098112;28;20165;-69
2023/08/27 09:42:12;;;;;;;3.33;0.90;;;21.40;99.90;;;;;;5093596;28;20082;-69
2023/08/27 09:44:38;;;;;;;1.83;1.00;;;21.50;99.90;;;;;;5081293;28;20081;-70
2023/08/27 09:47:05;;;;;;;2.00;1.48;;;21.80;99.90;;;;;;5076740;28;20096;-70
2023/08/27 09:49:31;;;;;;;2.10;1.15;;;22.00;99.90;;;;;;5083172;28;20390;-69
2023/08/27 09:51:58;;;;;;;2.10;1.30;;;22.10;99.90;;;;;;5096441;28;20036;-70
2023/08/27 09:54:29;;;;;;;1.60;1.38;;;22.20;99.90;;;;;;5082269;28;20043;-69
2023/08/27 09:57:01;;;;;;;3.17;1.52;;;22.10;99.90;;;;;;5099009;28;20113;-70
2023/08/27 09:59:27;;;;;;;3.90;1.63;;;22.00;99.90;;;;;;5095052;28;20065;-71
2023/08/27 10:01:53;;;;;;;1.70;1.05;;;22.10;99.90;;;;;;5071628;28;20541;-71
2023/08/27 10:04:21;;;;;;;2.28;1.13;;;22.10;99.90;;;;;;5076040;28;20039;-70
2023/08/27 10:06:47;;;;;;;2.95;0.95;;;22.20;99.90;;;;;;5114358;27;20048;-70
2023/08/27 10:09:14;;;;;;;3.30;1.20;;;22.30;99.90;;;;;;5080444;28;20098;-71
2023/08/27 10:11:44;;;;;;;2.63;1.30;;;22.50;99.90;;;;;;5096612;28;20040;-70
2023/08/27 10:14:10;;;;;;;2.95;1.58;;;22.50;99.90;;;;;;5095712;28;20036;-70
2023/08/27 10:16:36;;;;;;;2.17;1.25;;;22.50;99.90;;;;;;5076816;28;20391;-70
2023/08/27 10:19:04;;;;;;;3.45;1.58;;;22.50;99.90;;;;;;5098169;28;20044;-70
2023/08/27 10:21:30;;;;;;;2.90;0.90;;;22.50;99.90;;;;;;5096297;28;20504;-73
2023/08/27 10:23:57;;;;;;;4.63;1.83;;;22.60;99.90;;;;;;5079317;28;20036;-70
2023/08/27 10:26:23;;;;;;;2.38;1.30;;;22.70;99.90;;;;;;5113966;27;20032;-70
2023/08/27 10:28:52;;;;;;;4.65;1.75;;;22.80;99.90;;;;;;5094167;28;20043;-70
2023/08/27 10:31:18;;;;;;;2.45;1.23;;;22.70;99.90;;;;;;5099867;28;20457;-69
2023/08/27 10:33:43;;;;;;;18.27;2.65;;;22.50;99.90;;;;;;5075816;28;20075;-69
2023/08/27 10:36:25;;;;;;;4.65;1.40;;;22.30;99.90;;;;;;5079852;28;20042;-69
2023/08/27 10:38:52;;;;;;;3.00;1.60;;;22.00;99.90;;;;;;5096149;28;20036;-70
2023/08/27 10:41:22;;;;;;;2.83;1.42;;;21.50;99.90;;;;;;5097422;28;20117;-70
2023/08/27 10:43:47;;;;;;;2.20;1.45;;;21.30;99.90;;;;;;5095854;28;20035;-70
2023/08/27 10:46:17;;;;;;;5.25;2.08;;;21.10;99.90;;;;;;5077498;28;20046;-69
2023/08/27 10:48:50;;;;;;;2.45;2.03;;;20.80;99.90;;;;;;5099971;28;20042;-69
2023/08/27 10:51:18;;;;;;;3.83;2.67;;;20.40;99.90;;;;;;5076552;28;20032;-69
2023/08/27 10:53:49;;;;;;;4.05;2.50;;;20.00;99.90;;;;;;5097360;28;20040;-69
2023/08/27 10:56:34;;;;;;;4.22;2.63;;;19.80;99.90;;;;;;5092206;28;20067;-67
2023/08/27 10:59:11;;;;;;;2.80;2.58;;;19.60;99.90;;;;;;5094589;28;20063;-67
2023/08/27 11:02:07;;;;;;;2.90;2.60;;;19.50;99.90;;;;;;5083371;28;20065;-66
2023/08/27 11:04:35;;;;;;;4.05;2.75;;;19.40;99.90;;;;;;5083831;28;20650;-70
2023/08/27 11:07:11;;;;;;;4.25;2.30;;;19.40;99.90;;;;;;5098707;28;20386;-66
2023/08/27 11:09:48;;;;;;;2.65;2.35;;;19.30;99.90;;;;;;5079289;28;20115;-70
2023/08/27 11:12:21;;;;;;;4.35;2.58;;;19.30;99.90;;;;;;5074981;28;20043;-68
2023/08/27 11:14:47;;;;;;;4.03;3.45;;;19.20;99.90;;;;;;5097383;28;20115;-72
2023/08/27 11:17:28;;;;;;;5.32;3.28;;;19.40;99.90;;;;;;5075198;28;20115;-69
2023/08/27 11:19:57;;;;;;;3.20;2.90;;;19.60;99.90;;;;;;5076792;28;20044;-68
2023/08/27 11:22:23;;;;;;;6.88;3.85;;;19.70;99.90;;;;;;5099230;28;20039;-70
2023/08/27 11:24:52;;;;;;;4.20;3.65;;;19.80;99.90;;;;;;5074749;28;20074;-69
2023/08/27 11:27:19;;;;;;;3.72;3.30;;;19.80;99.90;;;;;;5075108;28;20050;-67
2023/08/27 11:29:57;;;;;;;6.63;3.92;;;19.70;99.90;;;;;;5076310;28;20028;-70
2023/08/27 11:32:23;;;;;;;4.47;3.10;;;19.60;99.90;;;;;;5098427;28;20036;-69
2023/08/27 11:34:51;;;;;;;4.72;3.70;;;19.50;99.90;;;;;;5075860;28;20097;-69
2023/08/27 11:37:17;;;;;;;4.53;3.50;;;19.40;99.90;;;;;;5080523;28;20032;-69
2023/08/27 11:39:43;;;;;;;5.68;4.05;;;19.30;99.90;;;;;;5096261;28;20386;-69
2023/08/27 11:42:14;;;;;;;5.07;3.85;;;19.10;99.90;;;;;;5080696;28;20040;-69
2023/08/27 11:44:47;;;;;;;4.10;3.17;;;19.00;99.90;;;;;;5093751;28;20549;-69
2023/08/27 11:47:13;;;;;;;6.13;3.35;;;18.90;99.90;;;;;;5110545;27;20551;-69
2023/08/27 11:49:39;;;;;;;6.47;4.40;;;18.80;99.90;;;;;;5098587;28;20039;-69
2023/08/27 11:52:06;;;;;;;4.65;3.03;;;18.70;99.90;;;;;;5070718;28;20040;-69
2023/08/27 11:54:34;;;;;;;5.07;2.78;;;18.70;99.90;;;;;;5080384;28;20043;-69
2023/08/27 11:57:02;;;;;;;3.00;2.30;;;18.70;99.90;;;;;;5096534;28;20093;-69
2023/08/27 11:59:28;;;;;;;4.70;2.70;;;18.70;99.90;;;;;;5095981;28;20478;-69
2023/08/27 12:01:58;;;;;;;4.40;3.17;;;18.70;99.90;;;;;;5080818;28;20104;-69
2023/08/27 12:04:32;;;;;;;3.25;2.95;;;18.70;99.90;;;;;;5063241;28;20036;-69
2023/08/27 12:07:02;;;;;;;4.68;3.15;;;18.60;99.90;;;;;;5093336;28;20078;-69
2023/08/27 12:09:31;;;;;;;3.33;1.95;;;18.60;99.90;;;;;;5098223;28;20036;-69
2023/08/27 12:12:03;;;;;;;3.70;0.80;;;18.50;99.90;;;;;;5093374;28;20056;-69
2023/08/27 12:14:29;;;;;;;0.90;0.50;;;18.40;99.90;;;;;;5083476;28;20076;-69
2023/08/27 12:17:09;;;;;;;1.65;0.50;;;18.30;99.90;;;;;;5074002;28;20623;-68
2023/08/27 12:19:36;;;;;;;0.75;0.45;;;18.50;99.90;;;;;;5084621;28;20042;-69
2023/08/27 12:22:03;;;;;;;2.03;0.50;;;18.80;99.90;;;;;;5095038;28;20036;-69
2023/08/27 12:24:34;;;;;;;0.47;0.20;;;19.10;99.90;;;;;;5076944;28;20085;-69
2023/08/27 12:27:04;;;;;;;1.73;0.73;;;19.20;99.90;;;;;;5097361;28;20097;-69
2023/08/27 12:29:32;;;;;;;0.20;0.20;;;19.30;99.90;;;;;;5096551;28;20042;-69
2023/08/27 12:32:07;;;;;;;0.52;0.20;;;19.50;99.90;;;;;;5083897;28;20063;-69
2023/08/27 12:34:37;;;;;;;0.65;0.30;;;19.60;99.90;;;;;;5094726;28;20028;-69
2023/08/27 12:37:03;;;;;;;0.38;0.20;;;19.80;99.90;;;;;;5096379;28;20047;-69
2023/08/27 12:39:29;;;;;;;0.68;0.40;;;19.80;99.90;;;;;;5082934;28;20490;-69
2023/08/27 12:41:55;;;;;;;0.20;0.10;;;20.00;99.90;;;;;;5065242;28;20044;-69
2023/08/27 12:44:21;;;;;;;0.98;0.25;;;20.30;99.90;;;;;;5092131;28;20032;-69